Time;durP1;ratioP1;P1;durP2;ratioP2;P2;SDS_P1;SDS_P2;PMS_P1;PMS_P2;Temp;Humidity;BMP_temperature;BMP_pressure;BME280_temperature;BME280_humidity;BME280_pressure;Samples;Min_cycle;Max_cycle;Signal;HPM_P1;HPM_P2
2024/04/18 00:01:26;;;;;;;2.22;1.77;;;;;;;13.91;45.29;101167.31;5384923;26;19995;-63
2024/04/18 00:03:51;;;;;;;2.60;1.55;;;;;;;13.91;45.34;101168.16;5416014;26;19995;-63
2024/04/18 00:06:17;;;;;;;3.83;1.60;;;;;;;13.93;45.45;101168.03;5385289;26;20008;-63
2024/04/18 00:08:42;;;;;;;2.88;1.58;;;;;;;13.93;45.63;101170.72;5384992;26;20042;-63
2024/04/18 00:11:26;;;;;;;3.22;2.20;;;;;;;13.94;45.51;101167.88;5415382;26;19996;-63
2024/04/18 00:13:51;;;;;;;2.25;1.80;;;;;;;13.95;45.14;101179.50;5384578;26;20004;-63
2024/04/18 00:16:35;;;;;;;1.92;1.60;;;;;;;13.93;45.29;101171.56;5415960;26;20008;-63
2024/04/18 00:19:16;;;;;;;4.05;2.15;;;;;;;13.94;45.22;101185.88;5358559;26;20097;-63
2024/04/18 00:21:55;;;;;;;2.53;1.40;;;;;;;13.95;45.28;101184.91;5387634;26;20028;-63
2024/04/18 00:24:30;;;;;;;3.17;2.15;;;;;;;13.94;45.36;101189.44;5415618;26;20013;-63
2024/04/18 00:26:55;;;;;;;4.22;2.15;;;;;;;13.96;45.35;101186.56;5385030;26;20009;-63
2024/04/18 00:29:31;;;;;;;3.58;1.90;;;;;;;13.94;45.45;101173.28;5416131;26;20003;-63
2024/04/18 00:32:07;;;;;;;4.07;2.22;;;;;;;13.94;45.22;101185.88;5390803;26;20554;-63
2024/04/18 00:34:32;;;;;;;2.67;1.80;;;;;;;13.95;45.22;101184.91;5388173;26;19995;-63
2024/04/18 00:36:58;;;;;;;2.80;2.05;;;;;;;13.96;45.40;101191.97;5358783;26;20018;-63
2024/04/18 00:39:23;;;;;;;4.30;1.88;;;;;;;13.96;45.50;101183.88;5359143;26;19995;-63
2024/04/18 00:42:01;;;;;;;5.75;2.42;;;;;;;13.95;45.20;101190.28;5419106;26;20474;-63
2024/04/18 00:44:29;;;;;;;6.47;2.67;;;;;;;13.97;45.62;101196.38;5387734;26;20000;-63
2024/04/18 00:47:13;;;;;;;5.25;2.78;;;;;;;13.94;45.51;101199.34;5338227;26;20086;-63
2024/04/18 00:49:59;;;;;;;4.88;2.35;;;;;;;13.95;45.62;101195.66;5392612;26;20000;-63
2024/04/18 00:52:37;;;;;;;2.92;2.42;;;;;;;13.93;45.39;101192.28;5390549;26;19995;-63
2024/04/18 00:55:03;;;;;;;7.57;3.75;;;;;;;13.91;45.71;101196.94;5417429;26;20005;-63
2024/04/18 00:57:32;;;;;;;4.03;2.65;;;;;;;13.90;45.45;101197.94;5388175;26;19995;-63
2024/04/18 00:59:58;;;;;;;8.88;3.17;;;;;;;13.89;45.67;101196.22;5418700;26;19996;-63
2024/04/18 01:02:23;;;;;;;4.22;2.90;;;;;;;13.88;45.58;101197.22;5358443;26;20007;-63
2024/04/18 01:05:09;;;;;;;7.15;3.00;;;;;;;13.84;45.55;101202.06;5392423;26;20436;-63
2024/04/18 01:07:40;;;;;;;6.13;3.05;;;;;;;13.82;45.42;101203.16;5359762;26;20018;-63
2024/04/18 01:10:19;;;;;;;5.00;2.67;;;;;;;13.84;45.58;101206.59;5390962;26;20045;-63
2024/04/18 01:12:54;;;;;;;5.78;2.88;;;;;;;13.82;45.53;101195.06;5387690;26;20000;-63
2024/04/18 01:15:40;;;;;;;3.05;2.35;;;;;;;13.81;45.69;101204.16;5368117;26;20000;-63
2024/04/18 01:18:05;;;;;;;4.20;2.97;;;;;;;13.82;45.58;101208.53;5387654;26;20014;-63
2024/04/18 01:20:31;;;;;;;4.72;3.35;;;;;;;13.76;45.67;101207.25;5387431;26;20007;-63
2024/04/18 01:22:57;;;;;;;5.68;3.00;;;;;;;13.77;45.50;101202.72;5418724;26;20035;-63
2024/04/18 01:25:41;;;;;;;4.97;3.15;;;;;;;13.75;45.95;101200.19;5392170;26;20049;-63
2024/04/18 01:28:06;;;;;;;4.68;3.58;;;;;;;13.74;45.77;101213.78;5419047;26;20327;-63
2024/04/18 01:30:32;;;;;;;5.03;3.25;;;;;;;13.72;45.86;101207.69;5388559;26;20004;-63
2024/04/18 01:33:09;;;;;;;4.93;3.08;;;;;;;13.71;45.58;101214.06;5390790;26;20019;-63
2024/04/18 01:35:34;;;;;;;5.78;3.17;;;;;;;13.67;45.74;101223.41;5358779;26;20011;-63
2024/04/18 01:38:00;;;;;;;3.75;2.95;;;;;;;13.66;45.69;101219.00;5388765;26;20361;-62
2024/04/18 01:40:44;;;;;;;4.65;3.40;;;;;;;13.63;45.62;101221.97;5368363;26;20003;-63
2024/04/18 01:43:28;;;;;;;4.00;2.78;;;;;;;13.60;45.59;101224.94;5369087;26;20034;-63
2024/04/18 01:45:56;;;;;;;6.20;2.72;;;;;;;13.55;45.74;101220.00;5389957;26;20000;-62
2024/04/18 01:48:22;;;;;;;6.65;2.70;;;;;;;13.54;45.40;101222.84;5359172;26;20026;-62
2024/04/18 01:51:06;;;;;;;8.00;3.50;;;;;;;13.54;45.83;101229.03;5392336;26;20072;-62
2024/04/18 01:53:31;;;;;;;7.43;3.03;;;;;;;13.54;45.76;101239.00;5388466;26;20015;-63
2024/04/18 01:55:57;;;;;;;3.90;2.75;;;;;;;13.54;45.67;101233.59;5359556;26;20000;-63
2024/04/18 01:58:41;;;;;;;4.25;2.78;;;;;;;13.53;45.91;101246.22;5393823;26;20050;-62
2024/04/18 02:01:06;;;;;;;4.57;2.97;;;;;;;13.51;46.00;101233.88;5418781;26;20011;-63
2024/04/18 02:03:32;;;;;;;5.40;3.65;;;;;;;13.50;45.96;101240.25;5358075;26;20435;-63
2024/04/18 02:06:11;;;;;;;6.18;3.03;;;;;;;13.53;45.96;101248.03;5387166;26;20015;-62
2024/04/18 02:08:45;;;;;;;6.72;2.88;;;;;;;13.53;46.26;101248.03;5418377;26;20000;-62
2024/04/18 02:11:16;;;;;;;4.47;3.00;;;;;;;13.52;45.87;101246.31;5359119;26;20518;-63
2024/04/18 02:14:02;;;;;;;7.25;2.42;;;;;;;13.49;46.08;101244.75;5391921;26;19995;-63
2024/04/18 02:16:27;;;;;;;5.15;3.00;;;;;;;13.54;45.91;101249.75;5386866;26;20074;-63
2024/04/18 02:19:12;;;;;;;7.68;3.35;;;;;;;13.54;45.85;101249.75;5392152;26;20019;-62
2024/04/18 02:22:00;;;;;;;4.78;2.65;;;;;;;13.52;46.26;101257.94;5351781;26;19995;-63
2024/04/18 02:24:37;;;;;;;6.88;2.95;;;;;;;13.53;46.25;101258.81;5387720;26;20003;-63
2024/04/18 02:27:03;;;;;;;6.22;3.47;;;;;;;13.54;46.10;101265.91;5386531;26;20080;-63
2024/04/18 02:29:28;;;;;;;4.95;3.10;;;;;;;13.55;46.05;101263.06;5357257;26;20455;-63
2024/04/18 02:31:58;;;;;;;5.00;3.15;;;;;;;13.55;46.06;101272.97;5387436;26;20008;-62
2024/04/18 02:34:29;;;;;;;5.45;3.30;;;;;;;13.55;46.21;101268.44;5358370;26;19999;-63
2024/04/18 02:36:54;;;;;;;5.93;3.15;;;;;;;13.53;46.03;101259.66;5386313;26;20056;-62
2024/04/18 02:39:20;;;;;;;6.75;3.53;;;;;;;13.57;46.18;101265.63;5386326;26;20108;-63
2024/04/18 02:41:45;;;;;;;6.35;3.88;;;;;;;13.59;46.38;101269.03;5386403;26;20073;-63
2024/04/18 02:44:40;;;;;;;6.10;3.22;;;;;;;13.58;46.20;101283.47;5401540;26;20011;-63
2024/04/18 02:47:05;;;;;;;4.80;3.28;;;;;;;13.56;45.99;101280.06;5417337;26;20078;-62
2024/04/18 02:49:31;;;;;;;4.82;3.80;;;;;;;13.58;46.45;101283.47;5386215;26;20338;-63
2024/04/18 02:51:57;;;;;;;9.68;3.30;;;;;;;13.59;46.09;101298.63;5356302;26;20000;-62
2024/04/18 02:54:40;;;;;;;4.93;3.08;;;;;;;13.55;46.50;101294.50;5391009;26;20022;-62
2024/04/18 02:57:06;;;;;;;6.07;3.40;;;;;;;13.55;46.54;101297.19;5386029;26;20003;-63
2024/04/18 02:59:31;;;;;;;6.35;2.92;;;;;;;13.56;46.21;101297.06;5386140;26;20003;-63
2024/04/18 03:02:17;;;;;;;5.65;3.65;;;;;;;13.55;46.30;101302.56;5390640;26;20015;-62
2024/04/18 03:04:42;;;;;;;10.82;3.80;;;;;;;13.56;46.43;101298.91;5385907;26;20045;-63
2024/04/18 03:07:08;;;;;;;5.13;3.28;;;;;;;13.57;46.33;101301.44;5385872;26;20072;-62
2024/04/18 03:09:45;;;;;;;5.55;3.40;;;;;;;13.57;46.43;101301.44;5389168;26;20054;-63
2024/04/18 03:12:25;;;;;;;7.57;4.07;;;;;;;13.55;46.40;101299.88;5389344;26;20456;-63
2024/04/18 03:14:51;;;;;;;9.57;4.20;;;;;;;13.55;46.29;101299.88;5356991;26;20343;-62
2024/04/18 03:17:37;;;;;;;5.13;3.28;;;;;;;13.54;46.50;101314.34;5402601;26;20064;-62
2024/04/18 03:20:02;;;;;;;6.63;3.95;;;;;;;13.54;45.95;101308.97;5385615;26;20385;-62
2024/04/18 03:22:30;;;;;;;7.38;3.53;;;;;;;13.53;46.46;101307.25;5416849;26;20076;-63
2024/04/18 03:24:59;;;;;;;6.80;4.25;;;;;;;13.49;46.44;101311.19;5356593;26;20019;-63
2024/04/18 03:27:25;;;;;;;9.13;3.70;;;;;;;13.49;46.52;101308.50;5327994;26;20003;-63
2024/04/18 03:29:50;;;;;;;6.57;3.47;;;;;;;13.45;46.46;101313.31;5416716;26;20065;-63
2024/04/18 03:32:31;;;;;;;5.07;2.78;;;;;;;13.42;46.50;101305.53;5385346;26;20076;-62
2024/04/18 03:34:57;;;;;;;5.55;3.50;;;;;;;13.43;46.18;101316.13;5385708;26;20339;-63
2024/04/18 03:37:23;;;;;;;5.30;3.83;;;;;;;13.40;45.95;101313.72;5385447;26;20000;-63
2024/04/18 03:39:48;;;;;;;7.05;3.70;;;;;;;13.40;46.70;101319.09;5356411;26;20404;-63
2024/04/18 03:42:14;;;;;;;6.55;3.45;;;;;;;13.39;46.38;101332.69;5356384;26;20059;-62
2024/04/18 03:44:52;;;;;;;7.10;3.40;;;;;;;13.32;46.67;101327.00;5359239;26;20015;-62
2024/04/18 03:47:18;;;;;;;5.38;3.38;;;;;;;13.32;46.33;101329.69;5356130;26;20073;-63
2024/04/18 03:50:03;;;;;;;7.47;3.38;;;;;;;13.32;46.53;101342.28;5415218;26;20454;-63
2024/04/18 03:52:38;;;;;;;4.82;2.92;;;;;;;13.30;46.71;101344.25;5373490;26;20071;-63
2024/04/18 03:55:35;;;;;;;5.90;3.45;;;;;;;13.28;46.41;101351.63;5357750;26;20011;-63
2024/04/18 03:58:01;;;;;;;4.68;3.10;;;;;;;13.26;46.43;101354.44;5385107;26;20044;-63
2024/04/18 04:00:46;;;;;;;6.30;3.45;;;;;;;13.22;46.29;101347.63;5416359;26;20075;-63
2024/04/18 04:03:12;;;;;;;6.28;4.07;;;;;;;13.23;46.44;101354.69;5416161;26;20011;-63
2024/04/18 04:05:37;;;;;;;5.38;3.35;;;;;;;13.21;46.47;101359.34;5388335;26;20015;-63
2024/04/18 04:08:05;;;;;;;6.78;3.80;;;;;;;13.21;46.75;101362.06;5418180;26;20320;-63
2024/04/18 04:10:42;;;;;;;8.10;3.72;;;;;;;13.21;46.54;101362.06;5360531;26;19995;-63
2024/04/18 04:13:08;;;;;;;6.93;3.60;;;;;;;13.19;46.84;101368.56;5359128;26;20014;-63
2024/04/18 04:15:40;;;;;;;7.43;3.65;;;;;;;13.20;46.99;101371.13;5360470;26;19992;-63
2024/04/18 04:18:06;;;;;;;5.70;3.67;;;;;;;13.20;46.71;101371.13;5388385;26;19995;-63
2024/04/18 04:20:43;;;;;;;6.85;3.53;;;;;;;13.22;46.57;101373.66;5418100;26;20000;-63
2024/04/18 04:23:09;;;;;;;6.32;3.53;;;;;;;13.21;46.81;101366.56;5330064;26;20000;-64
2024/04/18 04:25:55;;;;;;;5.57;3.85;;;;;;;13.19;46.61;101376.63;5366868;26;20374;-63
2024/04/18 04:28:20;;;;;;;7.60;4.47;;;;;;;13.21;46.77;101380.88;5324897;26;20000;-63
2024/04/18 04:30:46;;;;;;;5.68;3.75;;;;;;;13.20;46.81;101379.19;5324470;26;20028;-63
2024/04/18 04:33:11;;;;;;;5.97;3.30;;;;;;;13.21;46.84;101385.41;5353388;26;20000;-63
2024/04/18 04:35:37;;;;;;;5.32;3.85;;;;;;;13.19;46.62;101388.25;5353200;26;20012;-63
2024/04/18 04:38:02;;;;;;;8.65;3.78;;;;;;;13.16;46.76;101390.34;5353070;26;20011;-63
2024/04/18 04:40:31;;;;;;;8.48;4.07;;;;;;;13.17;46.68;101398.28;5324689;26;20008;-63
2024/04/18 04:42:57;;;;;;;6.03;3.85;;;;;;;13.16;46.98;101406.47;5352896;26;20447;-63
2024/04/18 04:45:23;;;;;;;5.63;3.30;;;;;;;13.13;46.66;101410.28;5382381;26;20038;-63
2024/04/18 04:48:07;;;;;;;9.98;4.10;;;;;;;13.13;46.74;101415.66;5328206;26;20000;-64
2024/04/18 04:50:58;;;;;;;6.18;3.42;;;;;;;13.12;47.00;101415.81;5357893;26;20003;-63
2024/04/18 04:53:30;;;;;;;7.78;3.70;;;;;;;13.13;46.51;101426.41;5328883;26;20321;-63
2024/04/18 04:55:58;;;;;;;9.95;3.97;;;;;;;13.12;46.94;101427.38;5354505;26;20008;-63
2024/04/18 04:58:24;;;;;;;6.07;3.55;;;;;;;13.15;46.89;101437.06;5353794;26;20011;-63
2024/04/18 05:00:50;;;;;;;5.97;3.50;;;;;;;13.14;46.79;101441.59;5384517;26;20000;-63
2024/04/18 05:03:37;;;;;;;5.47;3.75;;;;;;;13.13;46.73;101434.50;5346251;26;20011;-63
2024/04/18 05:06:22;;;;;;;5.90;4.13;;;;;;;13.11;46.60;101447.22;5358376;26;20070;-63
2024/04/18 05:09:09;;;;;;;5.82;3.72;;;;;;;13.14;46.95;101451.50;5357450;26;20022;-63
2024/04/18 05:11:34;;;;;;;7.00;4.20;;;;;;;13.14;47.00;101451.50;5353152;26;20000;-63
2024/04/18 05:14:00;;;;;;;6.10;3.20;;;;;;;13.17;46.65;101457.47;5352882;26;20027;-63
2024/04/18 05:16:44;;;;;;;5.03;3.40;;;;;;;13.21;46.84;101464.28;5356376;26;20388;-63
2024/04/18 05:19:10;;;;;;;4.78;3.17;;;;;;;13.27;46.83;101468.28;5355363;26;20012;-63
2024/04/18 05:21:36;;;;;;;7.50;3.60;;;;;;;13.26;47.14;101462.03;5323463;26;20000;-63
2024/04/18 05:24:21;;;;;;;6.63;3.08;;;;;;;13.30;46.70;101474.25;5336400;26;20010;-63
2024/04/18 05:26:46;;;;;;;5.93;3.33;;;;;;;13.32;46.94;101477.66;5387683;26;20014;-63
2024/04/18 05:31:57;;;;;;;4.22;2.97;;;;;;;13.41;46.82;101484.97;5387449;26;20011;-63
2024/04/18 05:34:23;;;;;;;5.57;3.25;;;;;;;13.47;46.96;101480.88;5387322;26;20480;-63
2024/04/18 05:36:48;;;;;;;5.85;3.30;;;;;;;13.50;46.53;101486.00;5418650;26;20010;-63
2024/04/18 05:39:14;;;;;;;4.25;3.08;;;;;;;13.55;46.82;101499.06;5358011;26;20039;-63
2024/04/18 05:41:39;;;;;;;5.97;3.42;;;;;;;13.60;46.67;101496.81;5329184;26;20046;-63
2024/04/18 05:44:25;;;;;;;4.78;2.90;;;;;;;13.65;46.82;101500.00;5392635;26;20538;-64
2024/04/18 05:46:51;;;;;;;12.45;4.47;;;;;;;13.79;46.55;101513.94;5387165;26;20011;-64
2024/04/18 05:49:20;;;;;;;5.43;3.40;;;;;;;13.83;46.69;101518.09;5357347;26;19996;-65
2024/04/18 05:51:46;;;;;;;6.90;3.42;;;;;;;13.86;46.59;101525.06;5388504;26;20000;-65
2024/04/18 05:54:30;;;;;;;4.60;3.17;;;;;;;13.93;46.79;101531.63;5337643;26;20011;-63
2024/04/18 05:57:05;;;;;;;6.43;3.05;;;;;;;14.07;46.57;101533.13;5394518;26;20009;-64
2024/04/18 05:59:51;;;;;;;5.18;2.90;;;;;;;14.25;46.44;101529.63;5361778;26;20439;-63
2024/04/18 06:02:16;;;;;;;6.07;3.00;;;;;;;14.32;46.57;101538.91;5454401;26;19995;-62
2024/04/18 06:04:42;;;;;;;4.30;3.35;;;;;;;14.48;46.27;101543.81;5452590;26;19998;-62
2024/04/18 06:07:26;;;;;;;7.70;2.78;;;;;;;14.53;46.52;101549.63;5427462;26;20017;-62
2024/04/18 06:09:51;;;;;;;5.05;2.70;;;;;;;14.55;46.58;101540.41;5422407;26;20035;-62
2024/04/18 06:12:17;;;;;;;4.88;2.55;;;;;;;14.72;46.56;101547.00;5422327;26;20003;-63
2024/04/18 06:14:43;;;;;;;2.83;2.25;;;;;;;14.74;46.44;101545.00;5453916;26;20013;-63
2024/04/18 06:17:08;;;;;;;4.35;2.70;;;;;;;14.82;46.45;101552.41;5452381;26;19999;-62
2024/04/18 06:19:52;;;;;;;4.03;2.65;;;;;;;14.83;46.21;101565.75;5426300;26;20075;-63
2024/04/18 06:22:27;;;;;;;11.65;3.35;;;;;;;14.94;46.09;101559.38;5424906;26;20002;-63
2024/04/18 06:25:12;;;;;;;3.33;2.22;;;;;;;15.27;45.50;101563.56;5454209;26;20013;-62
2024/04/18 06:27:38;;;;;;;8.82;3.80;;;;;;;15.53;45.45;101572.81;5422366;26;19995;-63
2024/04/18 06:30:04;;;;;;;5.10;2.30;;;;;;;15.68;45.68;101569.53;5455216;26;20064;-63
2024/04/18 06:32:29;;;;;;;4.50;2.67;;;;;;;15.82;45.35;101578.19;5454554;26;20003;-63
2024/04/18 06:34:55;;;;;;;6.43;2.47;;;;;;;16.10;45.42;101582.69;5453898;26;19999;-63
2024/04/18 06:37:20;;;;;;;3.92;2.42;;;;;;;16.31;45.34;101584.19;5453874;26;20100;-63
2024/04/18 06:39:45;;;;;;;8.43;2.10;;;;;;;16.56;44.56;101590.78;5421923;26;20014;-63
2024/04/18 06:42:11;;;;;;;7.20;2.00;;;;;;;16.79;44.47;101584.00;5391856;26;19998;-63
2024/04/18 06:44:37;;;;;;;6.32;1.90;;;;;;;16.99;44.96;101592.84;5453514;26;20458;-63
2024/04/18 06:47:03;;;;;;;3.15;1.80;;;;;;;17.16;44.25;101586.63;5421588;26;20006;-63
2024/04/18 06:49:28;;;;;;;3.75;1.73;;;;;;;17.39;44.67;101587.03;5421312;26;20007;-63
2024/04/18 06:51:54;;;;;;;6.78;2.08;;;;;;;17.59;43.93;101577.75;5391954;26;20356;-63
2024/04/18 06:54:19;;;;;;;6.07;1.60;;;;;;;17.81;43.38;101579.13;5451727;26;20010;-63
2024/04/18 06:56:44;;;;;;;8.90;1.80;;;;;;;18.02;43.27;101588.59;5421629;26;19999;-63
2024/04/18 06:59:10;;;;;;;3.72;1.60;;;;;;;18.24;43.35;101589.06;5452928;26;20003;-63
2024/04/18 07:01:38;;;;;;;3.67;1.60;;;;;;;18.41;43.16;101594.44;5422082;26;20029;-63
2024/04/18 07:04:04;;;;;;;2.47;1.60;;;;;;;18.63;42.74;101593.06;5392705;26;20002;-63
2024/04/18 07:06:29;;;;;;;2.85;1.27;;;;;;;18.84;42.29;101598.06;5421866;26;20033;-63
2024/04/18 07:09:01;;;;;;;5.63;1.48;;;;;;;19.05;42.12;101595.75;5421770;26;19994;-63
2024/04/18 07:11:42;;;;;;;5.05;1.67;;;;;;;19.24;42.41;101591.88;5421420;26;20005;-63
2024/04/18 07:14:07;;;;;;;2.50;1.25;;;;;;;19.46;41.90;101591.28;5421906;26;20002;-63
2024/04/18 07:16:33;;;;;;;2.72;1.30;;;;;;;19.65;41.89;101590.97;5391924;26;19999;-63
2024/04/18 07:19:18;;;;;;;3.28;1.40;;;;;;;19.88;41.46;101593.88;5425906;26;20400;-63
2024/04/18 07:21:53;;;;;;;2.42;1.42;;;;;;;20.10;41.03;101593.16;5421186;26;20002;-63
2024/04/18 07:24:19;;;;;;;2.90;1.40;;;;;;;20.29;40.93;101599.13;5450952;26;20007;-63
2024/04/18 07:26:46;;;;;;;2.25;1.20;;;;;;;20.48;40.62;101602.47;5421918;26;19999;-63
2024/04/18 07:29:11;;;;;;;2.25;1.50;;;;;;;20.63;40.70;101601.53;5450811;26;20013;-63
2024/04/18 07:31:37;;;;;;;5.95;1.48;;;;;;;20.81;40.25;101607.63;5391603;26;20003;-63
2024/04/18 07:34:11;;;;;;;6.10;1.90;;;;;;;21.03;40.09;101608.69;5423430;26;20003;-63
2024/04/18 07:36:37;;;;;;;1.75;1.17;;;;;;;21.18;39.94;101612.41;5356219;26;20001;-63
2024/04/18 07:39:05;;;;;;;7.22;1.17;;;;;;;21.39;39.48;101617.22;5352170;26;20004;-64
2024/04/18 07:41:30;;;;;;;4.55;1.42;;;;;;;21.55;39.49;101614.41;5353696;26;20014;-63
2024/04/18 07:43:56;;;;;;;2.80;1.27;;;;;;;21.69;39.16;101626.41;5384722;26;20082;-63
2024/04/18 07:46:25;;;;;;;4.72;1.13;;;;;;;21.82;38.99;101626.63;5384605;26;20011;-63
2024/04/18 07:48:50;;;;;;;3.03;1.05;;;;;;;21.97;38.54;101622.09;5384669;26;20005;-63
2024/04/18 07:51:16;;;;;;;2.40;1.80;;;;;;;22.17;38.58;101622.41;5382686;26;20451;-63
2024/04/18 07:53:41;;;;;;;1.30;1.13;;;;;;;22.35;38.14;101622.91;5382659;26;20452;-62
2024/04/18 07:56:07;;;;;;;4.47;1.10;;;;;;;22.52;37.91;101630.75;5382639;26;20073;-63
2024/04/18 07:58:33;;;;;;;4.50;0.90;;;;;;;22.73;37.71;101638.22;5383146;26;20024;-63
2024/04/18 08:00:59;;;;;;;1.63;1.10;;;;;;;22.90;37.28;101641.59;5382878;26;20074;-63
2024/04/18 08:03:24;;;;;;;8.90;1.10;;;;;;;23.03;37.28;101648.09;5353781;26;20453;-65
2024/04/18 08:05:50;;;;;;;6.70;1.00;;;;;;;23.14;36.89;101641.31;5383727;26;20004;-63
2024/04/18 08:08:16;;;;;;;1.77;0.98;;;;;;;23.26;36.90;101650.69;5382959;26;20012;-63
2024/04/18 08:10:42;;;;;;;5.05;1.20;;;;;;;23.43;36.67;101648.63;5324697;26;20451;-63
2024/04/18 08:13:08;;;;;;;3.92;1.05;;;;;;;23.60;36.48;101653.66;5384666;26;20084;-63
2024/04/18 08:15:39;;;;;;;2.83;1.27;;;;;;;23.78;36.15;101645.84;5354274;26;20070;-64
2024/04/18 08:18:06;;;;;;;4.30;1.00;;;;;;;24.04;35.95;101655.34;5354280;26;20015;-64
2024/04/18 08:20:31;;;;;;;2.35;1.52;;;;;;;24.20;35.92;101652.38;5354590;26;19996;-63
2024/04/18 08:22:57;;;;;;;1.48;0.63;;;;;;;24.34;35.09;101649.53;5385620;26;20020;-67
2024/04/18 08:25:24;;;;;;;3.05;0.80;;;;;;;24.53;35.24;101655.38;5383839;26;19997;-63
2024/04/18 08:27:50;;;;;;;3.15;1.13;;;;;;;24.69;34.79;101650.41;5382350;26;20015;-64
2024/04/18 08:30:16;;;;;;;3.20;0.80;;;;;;;24.66;35.17;101656.28;5382247;26;20004;-64
2024/04/18 08:32:42;;;;;;;3.20;0.90;;;;;;;24.36;35.08;101665.78;5352997;26;20005;-63
2024/04/18 08:35:07;;;;;;;2.85;0.90;;;;;;;24.08;35.33;101662.13;5352842;26;20428;-64
2024/04/18 08:37:33;;;;;;;2.25;0.63;;;;;;;23.98;35.03;101667.09;5384139;26;20023;-64
2024/04/18 08:39:58;;;;;;;2.47;0.80;;;;;;;24.17;34.60;101672.78;5324379;26;20485;-64
2024/04/18 08:42:24;;;;;;;3.28;0.70;;;;;;;23.71;35.04;101672.31;5382294;26;20019;-63
2024/04/18 08:44:55;;;;;;;2.15;0.85;;;;;;;23.29;34.63;101680.41;5352964;26;19997;-63
2024/04/18 08:47:23;;;;;;;1.90;0.63;;;;;;;23.76;34.17;101664.34;5382157;26;20015;-63
2024/04/18 08:49:50;;;;;;;2.85;0.65;;;;;;;24.20;33.93;101679.75;5352187;26;19997;-63
2024/04/18 08:52:16;;;;;;;1.35;0.60;;;;;;;23.92;34.49;101684.31;5352536;26;20004;-63
2024/04/18 08:54:41;;;;;;;4.00;0.50;;;;;;;23.47;34.43;101680.88;5352975;26;20034;-63
2024/04/18 08:57:09;;;;;;;1.65;0.70;;;;;;;23.44;34.35;101689.47;5353131;26;20004;-63
2024/04/18 08:59:34;;;;;;;1.38;0.90;;;;;;;23.90;33.55;101687.22;5383579;26;20054;-63
2024/04/18 09:02:00;;;;;;;0.80;0.73;;;;;;;24.30;32.68;101693.94;5381712;26;20004;-63
2024/04/18 09:04:25;;;;;;;1.38;0.60;;;;;;;24.43;32.86;101685.84;5383699;26;20070;-63
2024/04/18 09:06:51;;;;;;;3.50;0.50;;;;;;;24.76;32.74;101686.91;5352911;26;20008;-63
2024/04/18 09:09:18;;;;;;;1.95;0.57;;;;;;;25.17;32.92;101681.50;5352426;26;20011;-63
2024/04/18 09:11:45;;;;;;;2.33;0.70;;;;;;;25.20;32.02;101692.06;5381112;26;20011;-63
2024/04/18 09:14:11;;;;;;;2.08;0.63;;;;;;;25.56;32.80;101685.47;5352581;26;20008;-63
2024/04/18 09:16:38;;;;;;;4.32;0.63;;;;;;;25.88;31.80;101692.97;5383091;26;20011;-63
2024/04/18 09:19:04;;;;;;;3.85;0.63;;;;;;;26.28;31.76;101691.13;5352479;26;20363;-64
2024/04/18 09:21:30;;;;;;;1.20;0.63;;;;;;;26.69;31.26;101690.91;5352098;26;20067;-63
2024/04/18 09:23:57;;;;;;;4.25;0.70;;;;;;;26.82;31.16;101693.66;5352058;26;20034;-64
2024/04/18 09:26:26;;;;;;;2.50;0.70;;;;;;;27.14;30.77;101696.31;5351885;26;20004;-66
2024/04/18 09:28:51;;;;;;;3.40;0.60;;;;;;;27.31;30.92;101696.66;5322996;26;20014;-66
2024/04/18 09:31:19;;;;;;;3.70;0.70;;;;;;;26.55;31.50;101696.41;5351941;26;19996;-64
2024/04/18 09:33:46;;;;;;;4.85;0.60;;;;;;;25.94;31.52;101698.47;5352185;26;20008;-64
2024/04/18 09:36:12;;;;;;;3.70;0.30;;;;;;;25.37;31.81;101698.06;5351574;26;20015;-63
2024/04/18 09:38:44;;;;;;;3.08;0.50;;;;;;;24.83;32.28;101704.31;5352198;26;20015;-63
2024/04/18 09:41:30;;;;;;;6.18;0.90;;;;;;;24.32;31.78;101708.28;5352135;26;20357;-63
2024/04/18 09:44:06;;;;;;;3.92;1.38;;;;;;;24.24;31.63;101709.28;5322947;26;20000;-63
2024/04/18 09:46:32;;;;;;;1.05;0.60;;;;;;;24.73;31.95;101698.31;5382514;26;20349;-64
2024/04/18 09:48:59;;;;;;;5.55;1.38;;;;;;;25.77;30.88;101699.88;5351645;26;20079;-66
2024/04/18 09:51:27;;;;;;;2.45;1.15;;;;;;;27.18;29.73;101705.00;5322754;26;20004;-64
2024/04/18 09:53:52;;;;;;;1.83;0.60;;;;;;;29.31;27.80;101703.84;5351423;26;20476;-66
2024/04/18 09:56:21;;;;;;;1.30;0.47;;;;;;;31.46;25.72;101702.44;5323038;26;19992;-66
2024/04/18 09:58:48;;;;;;;2.15;0.57;;;;;;;31.59;25.42;101697.47;5323356;26;20012;-66
2024/04/18 10:01:14;;;;;;;3.08;0.90;;;;;;;31.17;26.58;101698.78;5351521;26;20000;-66
2024/04/18 10:03:40;;;;;;;4.43;1.75;;;;;;;30.97;27.16;101703.84;5351483;26;20006;-67
2024/04/18 10:06:07;;;;;;;0.43;0.40;;;;;;;30.69;26.88;101706.47;5351428;26;20040;-66
2024/04/18 10:08:41;;;;;;;1.92;0.55;;;;;;;29.38;27.87;101710.13;5380640;26;20375;-64
2024/04/18 10:11:09;;;;;;;1.77;0.65;;;;;;;28.33;28.50;101709.47;5351744;26;20517;-64
2024/04/18 10:13:38;;;;;;;0.57;0.55;;;;;;;27.47;28.85;101714.66;5351903;26;20004;-65
2024/04/18 10:16:09;;;;;;;2.67;1.15;;;;;;;26.70;29.44;101715.44;5351838;26;20011;-64
2024/04/18 10:18:35;;;;;;;2.20;0.40;;;;;;;26.01;29.49;101717.69;5346102;26;20004;-64
2024/04/18 10:21:12;;;;;;;1.95;0.35;;;;;;;25.54;29.60;101715.88;5345563;26;20508;-64
2024/04/18 10:23:48;;;;;;;4.60;0.60;;;;;;;25.19;29.75;101726.03;5338060;26;20004;-64
2024/04/18 10:26:17;;;;;;;1.15;0.77;;;;;;;25.03;30.31;101717.28;5351656;26;20001;-63
2024/04/18 10:28:44;;;;;;;2.60;0.75;;;;;;;24.99;30.29;101724.19;5351923;26;20004;-64
2024/04/18 10:31:10;;;;;;;1.55;0.85;;;;;;;24.83;30.28;101719.91;5351536;26;20008;-64
2024/04/18 10:33:36;;;;;;;4.78;0.90;;;;;;;24.50;30.42;101725.09;5351589;26;20027;-63
2024/04/18 10:36:01;;;;;;;2.22;0.57;;;;;;;24.23;30.58;101728.66;5351355;26;20000;-64
2024/04/18 10:38:27;;;;;;;3.22;0.57;;;;;;;24.07;30.49;101737.09;5351533;26;20004;-63
2024/04/18 10:40:59;;;;;;;1.08;0.60;;;;;;;23.86;30.43;101737.09;5382294;26;20334;-63
2024/04/18 10:43:26;;;;;;;1.00;0.63;;;;;;;23.63;31.00;101734.50;5382411;26;20394;-63
2024/04/18 10:45:53;;;;;;;3.20;0.80;;;;;;;23.55;30.85;101732.72;5382567;26;20004;-63
2024/04/18 10:48:19;;;;;;;5.18;0.90;;;;;;;23.72;30.75;101739.69;5351692;26;20463;-63
2024/04/18 10:50:45;;;;;;;4.75;0.80;;;;;;;24.96;29.60;101725.47;5380910;26;20004;-63
2024/04/18 10:53:10;;;;;;;2.97;1.00;;;;;;;25.32;29.46;101717.84;5351296;26;20014;-63
2024/04/18 10:55:36;;;;;;;3.20;0.80;;;;;;;25.52;29.77;101717.97;5381789;26;20336;-63
2024/04/18 10:58:03;;;;;;;4.72;0.65;;;;;;;25.96;29.80;101721.06;5351228;26;20012;-63
2024/04/18 11:00:31;;;;;;;0.60;0.50;;;;;;;25.73;29.84;101714.25;5350967;26;20015;-63
2024/04/18 11:02:57;;;;;;;4.80;0.80;;;;;;;25.53;29.76;101719.69;5353241;26;20013;-63
2024/04/18 11:05:22;;;;;;;2.25;0.52;;;;;;;25.28;29.68;101726.72;5352507;26;20019;-63
2024/04/18 11:07:50;;;;;;;1.33;0.40;;;;;;;25.05;29.97;101737.13;5323367;26;20428;-63
2024/04/18 11:10:15;;;;;;;1.05;0.40;;;;;;;24.82;30.01;101740.97;5351420;26;20000;-63
2024/04/18 11:12:41;;;;;;;0.40;0.40;;;;;;;24.57;29.77;101738.84;5351026;26;20015;-63
2024/04/18 11:15:06;;;;;;;0.50;0.40;;;;;;;24.57;29.98;101728.72;5350350;26;20376;-63
2024/04/18 11:17:35;;;;;;;0.80;0.73;;;;;;;24.79;29.90;101733.16;5380028;26;20074;-63
2024/04/18 11:20:01;;;;;;;0.85;0.70;;;;;;;24.63;30.26;101733.41;5350690;26;20037;-63
2024/04/18 11:22:26;;;;;;;1.80;0.63;;;;;;;24.71;29.91;101735.16;5351198;26;20000;-63
2024/04/18 11:24:52;;;;;;;1.20;0.30;;;;;;;24.54;30.08;101734.59;5380133;26;20008;-63
2024/04/18 11:27:17;;;;;;;1.83;0.70;;;;;;;24.47;30.24;101733.72;5351476;26;20480;-63
2024/04/18 11:29:46;;;;;;;0.75;0.40;;;;;;;24.74;29.26;101727.38;5323955;26;20001;-63
2024/04/18 11:32:11;;;;;;;1.33;0.70;;;;;;;25.30;29.35;101730.09;5352225;26;20449;-64
2024/04/18 11:34:42;;;;;;;2.25;0.70;;;;;;;25.35;29.78;101727.56;5381846;26;20099;-63
2024/04/18 11:37:09;;;;;;;0.93;0.60;;;;;;;25.69;28.98;101726.69;5351940;26;20014;-63
2024/04/18 11:39:35;;;;;;;1.50;0.70;;;;;;;26.47;28.83;101729.59;5351226;26;20005;-64